sensor_id;sensor_type;location;lat;lon;timestamp;P1;durP1;ratioP1;P2;durP2;ratioP2
75408;SDS011;63979;55.644;37.734;2022-11-20T00:02:55;11.10;;;5.63;;
75408;SDS011;63979;55.644;37.734;2022-11-20T00:07:57;8.95;;;4.43;;
75408;SDS011;63979;55.644;37.734;2022-11-20T00:12:59;6.32;;;4.30;;
75408;SDS011;63979;55.644;37.734;2022-11-20T00:18:00;10.25;;;6.05;;
75408;SDS011;63979;55.644;37.734;2022-11-20T00:23:01;14.95;;;6.28;;
75408;SDS011;63979;55.644;37.734;2022-11-20T00:28:03;9.73;;;5.28;;
75408;SDS011;63979;55.644;37.734;2022-11-20T00:33:04;12.13;;;7.78;;
75408;SDS011;63979;55.644;37.734;2022-11-20T00:43:08;16.27;;;6.35;;
75408;SDS011;63979;55.644;37.734;2022-11-20T00:48:10;9.75;;;6.53;;
75408;SDS011;63979;55.644;37.734;2022-11-20T00:53:10;16.80;;;7.57;;
75408;SDS011;63979;55.644;37.734;2022-11-20T00:58:12;14.75;;;7.82;;
75408;SDS011;63979;55.644;37.734;2022-11-20T01:03:13;6.88;;;3.47;;
75408;SDS011;63979;55.644;37.734;2022-11-20T01:08:14;10.95;;;7.22;;
75408;SDS011;63979;55.644;37.734;2022-11-20T01:13:15;11.18;;;6.85;;
75408;SDS011;63979;55.644;37.734;2022-11-20T01:18:35;7.38;;;5.53;;
75408;SDS011;63979;55.644;37.734;2022-11-20T01:23:39;12.90;;;6.80;;
75408;SDS011;63979;55.644;37.734;2022-11-20T01:28:41;7.32;;;5.05;;
75408;SDS011;63979;55.644;37.734;2022-11-20T01:33:46;11.75;;;6.47;;
75408;SDS011;63979;55.644;37.734;2022-11-20T01:38:58;12.95;;;7.60;;
75408;SDS011;63979;55.644;37.734;2022-11-20T01:44:03;10.55;;;6.00;;
75408;SDS011;63979;55.644;37.734;2022-11-20T01:49:14;7.25;;;4.65;;
75408;SDS011;63979;55.644;37.734;2022-11-20T01:54:23;11.02;;;5.97;;
75408;SDS011;63979;55.644;37.734;2022-11-20T01:59:35;12.27;;;6.68;;
75408;SDS011;63979;55.644;37.734;2022-11-20T02:04:44;10.13;;;5.93;;
75408;SDS011;63979;55.644;37.734;2022-11-20T02:09:45;7.88;;;4.45;;
75408;SDS011;63979;55.644;37.734;2022-11-20T02:14:45;13.07;;;8.00;;
75408;SDS011;63979;55.644;37.734;2022-11-20T02:19:46;13.52;;;8.05;;
75408;SDS011;63979;55.644;37.734;2022-11-20T02:24:47;11.90;;;6.80;;
75408;SDS011;63979;55.644;37.734;2022-11-20T02:29:57;11.52;;;5.82;;
75408;SDS011;63979;55.644;37.734;2022-11-20T02:40:18;10.95;;;5.97;;
75408;SDS011;63979;55.644;37.734;2022-11-20T02:45:19;9.32;;;4.93;;
75408;SDS011;63979;55.644;37.734;2022-11-20T02:50:21;7.63;;;4.88;;
75408;SDS011;63979;55.644;37.734;2022-11-20T02:55:22;7.30;;;4.93;;
75408;SDS011;63979;55.644;37.734;2022-11-20T03:00:23;8.15;;;5.10;;
75408;SDS011;63979;55.644;37.734;2022-11-20T03:05:24;8.35;;;5.43;;
75408;SDS011;63979;55.644;37.734;2022-11-20T03:10:24;9.73;;;5.95;;
75408;SDS011;63979;55.644;37.734;2022-11-20T03:15:25;8.65;;;5.30;;
75408;SDS011;63979;55.644;37.734;2022-11-20T03:20:26;12.38;;;6.38;;
75408;SDS011;63979;55.644;37.734;2022-11-20T03:25:27;15.63;;;5.90;;
75408;SDS011;63979;55.644;37.734;2022-11-20T03:30:29;9.07;;;4.95;;
75408;SDS011;63979;55.644;37.734;2022-11-20T03:35:29;9.35;;;5.95;;
75408;SDS011;63979;55.644;37.734;2022-11-20T03:40:30;11.77;;;6.20;;
75408;SDS011;63979;55.644;37.734;2022-11-20T03:45:31;9.07;;;5.82;;
75408;SDS011;63979;55.644;37.734;2022-11-20T03:50:32;13.65;;;7.35;;
75408;SDS011;63979;55.644;37.734;2022-11-20T03:55:33;14.32;;;5.45;;
75408;SDS011;63979;55.644;37.734;2022-11-20T04:00:34;14.32;;;5.93;;
75408;SDS011;63979;55.644;37.734;2022-11-20T04:05:35;8.93;;;4.55;;
75408;SDS011;63979;55.644;37.734;2022-11-20T04:10:36;7.85;;;5.10;;
75408;SDS011;63979;55.644;37.734;2022-11-20T04:15:37;11.07;;;5.50;;
75408;SDS011;63979;55.644;37.734;2022-11-20T04:20:37;11.73;;;6.80;;
75408;SDS011;63979;55.644;37.734;2022-11-20T04:25:38;14.27;;;6.47;;
75408;SDS011;63979;55.644;37.734;2022-11-20T04:30:39;12.82;;;6.00;;
75408;SDS011;63979;55.644;37.734;2022-11-20T04:35:40;13.23;;;6.88;;
75408;SDS011;63979;55.644;37.734;2022-11-20T04:40:41;15.43;;;8.02;;
75408;SDS011;63979;55.644;37.734;2022-11-20T04:45:41;14.35;;;6.07;;
75408;SDS011;63979;55.644;37.734;2022-11-20T04:50:42;11.13;;;6.47;;
75408;SDS011;63979;55.644;37.734;2022-11-20T04:55:43;12.10;;;6.35;;
75408;SDS011;63979;55.644;37.734;2022-11-20T05:00:44;15.90;;;6.43;;
75408;SDS011;63979;55.644;37.734;2022-11-20T05:05:45;8.82;;;6.10;;
75408;SDS011;63979;55.644;37.734;2022-11-20T05:10:46;13.15;;;6.80;;
75408;SDS011;63979;55.644;37.734;2022-11-20T05:15:47;12.20;;;6.60;;
75408;SDS011;63979;55.644;37.734;2022-11-20T05:20:53;14.55;;;6.75;;
75408;SDS011;63979;55.644;37.734;2022-11-20T05:25:55;13.77;;;5.65;;
75408;SDS011;63979;55.644;37.734;2022-11-20T05:31:07;11.05;;;6.47;;
75408;SDS011;63979;55.644;37.734;2022-11-20T05:36:11;11.18;;;6.30;;
75408;SDS011;63979;55.644;37.734;2022-11-20T05:41:14;14.73;;;7.90;;
75408;SDS011;63979;55.644;37.734;2022-11-20T05:51:19;12.57;;;5.97;;
75408;SDS011;63979;55.644;37.734;2022-11-20T05:56:20;12.57;;;6.50;;
75408;SDS011;63979;55.644;37.734;2022-11-20T06:01:23;12.63;;;7.43;;
75408;SDS011;63979;55.644;37.734;2022-11-20T06:06:25;13.50;;;7.03;;
75408;SDS011;63979;55.644;37.734;2022-11-20T06:11:27;15.02;;;7.50;;
75408;SDS011;63979;55.644;37.734;2022-11-20T06:16:28;11.30;;;6.38;;
75408;SDS011;63979;55.644;37.734;2022-11-20T06:21:29;14.82;;;8.10;;
75408;SDS011;63979;55.644;37.734;2022-11-20T06:26:29;10.95;;;7.07;;
75408;SDS011;63979;55.644;37.734;2022-11-20T06:31:30;17.15;;;7.38;;
75408;SDS011;63979;55.644;37.734;2022-11-20T06:36:35;12.45;;;5.95;;
75408;SDS011;63979;55.644;37.734;2022-11-20T06:41:36;9.65;;;5.78;;
75408;SDS011;63979;55.644;37.734;2022-11-20T06:46:37;15.90;;;7.07;;
75408;SDS011;63979;55.644;37.734;2022-11-20T06:51:38;14.43;;;7.60;;
75408;SDS011;63979;55.644;37.734;2022-11-20T06:56:38;13.65;;;6.78;;
75408;SDS011;63979;55.644;37.734;2022-11-20T07:01:40;10.18;;;6.03;;
75408;SDS011;63979;55.644;37.734;2022-11-20T07:06:40;16.50;;;7.28;;
75408;SDS011;63979;55.644;37.734;2022-11-20T07:11:42;12.40;;;7.40;;
75408;SDS011;63979;55.644;37.734;2022-11-20T07:16:42;13.48;;;8.02;;
75408;SDS011;63979;55.644;37.734;2022-11-20T07:21:43;13.75;;;8.00;;
75408;SDS011;63979;55.644;37.734;2022-11-20T07:26:46;14.10;;;7.63;;
75408;SDS011;63979;55.644;37.734;2022-11-20T07:31:49;19.20;;;8.50;;
75408;SDS011;63979;55.644;37.734;2022-11-20T07:36:50;14.40;;;8.13;;
75408;SDS011;63979;55.644;37.734;2022-11-20T07:41:51;15.35;;;7.55;;
75408;SDS011;63979;55.644;37.734;2022-11-20T07:46:51;17.77;;;8.38;;
75408;SDS011;63979;55.644;37.734;2022-11-20T07:51:52;23.45;;;7.82;;
75408;SDS011;63979;55.644;37.734;2022-11-20T07:56:54;11.45;;;5.97;;
75408;SDS011;63979;55.644;37.734;2022-11-20T08:01:55;17.63;;;7.95;;
75408;SDS011;63979;55.644;37.734;2022-11-20T08:06:56;22.98;;;10.25;;
75408;SDS011;63979;55.644;37.734;2022-11-20T08:11:57;14.27;;;6.78;;
75408;SDS011;63979;55.644;37.734;2022-11-20T08:17:16;17.23;;;7.82;;
75408;SDS011;63979;55.644;37.734;2022-11-20T08:22:17;12.65;;;6.97;;
75408;SDS011;63979;55.644;37.734;2022-11-20T08:27:18;13.30;;;6.00;;
75408;SDS011;63979;55.644;37.734;2022-11-20T08:32:19;18.85;;;7.63;;
75408;SDS011;63979;55.644;37.734;2022-11-20T08:37:20;17.65;;;8.13;;
75408;SDS011;63979;55.644;37.734;2022-11-20T08:42:20;18.83;;;9.77;;
75408;SDS011;63979;55.644;37.734;2022-11-20T08:47:21;16.70;;;8.32;;
75408;SDS011;63979;55.644;37.734;2022-11-20T08:52:22;16.55;;;8.82;;
75408;SDS011;63979;55.644;37.734;2022-11-20T08:57:23;20.42;;;8.18;;
75408;SDS011;63979;55.644;37.734;2022-11-20T09:02:24;17.27;;;8.57;;
75408;SDS011;63979;55.644;37.734;2022-11-20T09:07:25;18.10;;;8.93;;
75408;SDS011;63979;55.644;37.734;2022-11-20T09:12:26;19.48;;;9.02;;
75408;SDS011;63979;55.644;37.734;2022-11-20T09:17:27;17.33;;;8.15;;
75408;SDS011;63979;55.644;37.734;2022-11-20T09:22:28;16.15;;;7.97;;
75408;SDS011;63979;55.644;37.734;2022-11-20T09:27:29;19.05;;;9.55;;
75408;SDS011;63979;55.644;37.734;2022-11-20T09:32:30;15.90;;;9.02;;
75408;SDS011;63979;55.644;37.734;2022-11-20T09:37:31;19.75;;;9.13;;
75408;SDS011;63979;55.644;37.734;2022-11-20T09:53:13;29.23;;;12.30;;
75408;SDS011;63979;55.644;37.734;2022-11-20T09:58:40;27.15;;;10.88;;
75408;SDS011;63979;55.644;37.734;2022-11-20T10:04:08;15.43;;;7.65;;
75408;SDS011;63979;55.644;37.734;2022-11-20T10:09:16;20.17;;;10.43;;
75408;SDS011;63979;55.644;37.734;2022-11-20T10:25:41;33.28;;;13.15;;
75408;SDS011;63979;55.644;37.734;2022-11-20T10:30:45;24.02;;;11.90;;
75408;SDS011;63979;55.644;37.734;2022-11-20T10:41:07;29.13;;;12.45;;
75408;SDS011;63979;55.644;37.734;2022-11-20T10:46:26;26.30;;;11.20;;
75408;SDS011;63979;55.644;37.734;2022-11-20T10:57:15;16.50;;;7.78;;
75408;SDS011;63979;55.644;37.734;2022-11-20T11:02:33;16.90;;;8.10;;
75408;SDS011;63979;55.644;37.734;2022-11-20T11:07:43;15.20;;;7.43;;
75408;SDS011;63979;55.644;37.734;2022-11-20T11:12:46;19.48;;;9.35;;
75408;SDS011;63979;55.644;37.734;2022-11-20T11:17:50;17.40;;;7.05;;
75408;SDS011;63979;55.644;37.734;2022-11-20T11:22:56;22.48;;;9.13;;
75408;SDS011;63979;55.644;37.734;2022-11-20T11:27:59;20.50;;;9.98;;
75408;SDS011;63979;55.644;37.734;2022-11-20T11:33:22;18.67;;;9.43;;
75408;SDS011;63979;55.644;37.734;2022-11-20T11:43:38;17.73;;;7.55;;
75408;SDS011;63979;55.644;37.734;2022-11-20T11:48:58;20.83;;;9.00;;
75408;SDS011;63979;55.644;37.734;2022-11-20T11:54:01;13.55;;;8.15;;
75408;SDS011;63979;55.644;37.734;2022-11-20T11:59:15;17.38;;;8.80;;
75408;SDS011;63979;55.644;37.734;2022-11-20T12:09:46;14.40;;;8.40;;
75408;SDS011;63979;55.644;37.734;2022-11-20T12:14:51;15.65;;;7.78;;
75408;SDS011;63979;55.644;37.734;2022-11-20T12:19:56;12.38;;;7.30;;
75408;SDS011;63979;55.644;37.734;2022-11-20T12:30:14;18.70;;;8.57;;
75408;SDS011;63979;55.644;37.734;2022-11-20T13:01:53;11.55;;;5.97;;
75408;SDS011;63979;55.644;37.734;2022-11-20T13:07:01;5.75;;;4.13;;
75408;SDS011;63979;55.644;37.734;2022-11-20T13:17:40;13.93;;;6.95;;
75408;SDS011;63979;55.644;37.734;2022-11-20T13:22:49;15.45;;;8.05;;
75408;SDS011;63979;55.644;37.734;2022-11-20T13:27:52;16.30;;;7.78;;
75408;SDS011;63979;55.644;37.734;2022-11-20T13:32:58;13.00;;;6.68;;
75408;SDS011;63979;55.644;37.734;2022-11-20T13:38:23;13.00;;;8.30;;
75408;SDS011;63979;55.644;37.734;2022-11-20T13:48:32;15.75;;;7.95;;
75408;SDS011;63979;55.644;37.734;2022-11-20T14:03:52;11.15;;;6.85;;
75408;SDS011;63979;55.644;37.734;2022-11-20T14:08:54;15.45;;;7.63;;
75408;SDS011;63979;55.644;37.734;2022-11-20T14:13:57;14.90;;;8.15;;
75408;SDS011;63979;55.644;37.734;2022-11-20T14:29:35;11.55;;;5.15;;
75408;SDS011;63979;55.644;37.734;2022-11-20T14:34:39;11.73;;;6.07;;
75408;SDS011;63979;55.644;37.734;2022-11-20T14:44:47;17.85;;;7.18;;
75408;SDS011;63979;55.644;37.734;2022-11-20T14:49:50;15.02;;;7.22;;
75408;SDS011;63979;55.644;37.734;2022-11-20T14:54:54;14.77;;;7.00;;
75408;SDS011;63979;55.644;37.734;2022-11-20T15:00:05;14.73;;;7.10;;
75408;SDS011;63979;55.644;37.734;2022-11-20T15:05:47;14.40;;;7.45;;
75408;SDS011;63979;55.644;37.734;2022-11-20T15:10:50;17.00;;;8.45;;
75408;SDS011;63979;55.644;37.734;2022-11-20T15:15:53;17.23;;;7.05;;
75408;SDS011;63979;55.644;37.734;2022-11-20T15:30:59;12.27;;;6.65;;
75408;SDS011;63979;55.644;37.734;2022-11-20T15:36:01;15.50;;;7.57;;
75408;SDS011;63979;55.644;37.734;2022-11-20T15:41:02;16.27;;;8.32;;
75408;SDS011;63979;55.644;37.734;2022-11-20T15:46:04;19.73;;;9.18;;
75408;SDS011;63979;55.644;37.734;2022-11-20T15:56:11;14.65;;;7.88;;
75408;SDS011;63979;55.644;37.734;2022-11-20T16:01:14;13.15;;;8.95;;
75408;SDS011;63979;55.644;37.734;2022-11-20T16:06:18;17.70;;;9.05;;
75408;SDS011;63979;55.644;37.734;2022-11-20T16:11:19;16.15;;;9.45;;
75408;SDS011;63979;55.644;37.734;2022-11-20T16:16:26;28.05;;;13.75;;
75408;SDS011;63979;55.644;37.734;2022-11-20T16:21:40;24.52;;;14.38;;
75408;SDS011;63979;55.644;37.734;2022-11-20T16:26:42;27.58;;;14.60;;
75408;SDS011;63979;55.644;37.734;2022-11-20T16:31:43;34.38;;;14.93;;
75408;SDS011;63979;55.644;37.734;2022-11-20T16:36:45;29.15;;;15.35;;
75408;SDS011;63979;55.644;37.734;2022-11-20T16:41:46;35.47;;;15.73;;
75408;SDS011;63979;55.644;37.734;2022-11-20T16:46:49;28.75;;;14.45;;
75408;SDS011;63979;55.644;37.734;2022-11-20T16:51:51;34.50;;;14.65;;
75408;SDS011;63979;55.644;37.734;2022-11-20T16:56:52;29.30;;;12.80;;
75408;SDS011;63979;55.644;37.734;2022-11-20T17:01:53;25.88;;;13.05;;
75408;SDS011;63979;55.644;37.734;2022-11-20T17:06:54;23.80;;;11.07;;
75408;SDS011;63979;55.644;37.734;2022-11-20T17:11:55;25.05;;;11.65;;
75408;SDS011;63979;55.644;37.734;2022-11-20T17:16:56;30.38;;;11.48;;
75408;SDS011;63979;55.644;37.734;2022-11-20T17:21:57;22.33;;;9.65;;
75408;SDS011;63979;55.644;37.734;2022-11-20T17:26:59;23.23;;;11.23;;
75408;SDS011;63979;55.644;37.734;2022-11-20T17:32:00;21.95;;;11.32;;
75408;SDS011;63979;55.644;37.734;2022-11-20T17:37:00;24.40;;;10.63;;
75408;SDS011;63979;55.644;37.734;2022-11-20T17:42:02;19.95;;;9.80;;
75408;SDS011;63979;55.644;37.734;2022-11-20T17:47:21;18.20;;;10.35;;
75408;SDS011;63979;55.644;37.734;2022-11-20T17:52:22;15.32;;;9.32;;
75408;SDS011;63979;55.644;37.734;2022-11-20T17:57:23;26.05;;;11.93;;
75408;SDS011;63979;55.644;37.734;2022-11-20T18:02:44;20.92;;;10.88;;
75408;SDS011;63979;55.644;37.734;2022-11-20T18:07:44;22.90;;;10.35;;
75408;SDS011;63979;55.644;37.734;2022-11-20T18:12:45;13.40;;;7.03;;
75408;SDS011;63979;55.644;37.734;2022-11-20T18:17:47;26.25;;;10.25;;
75408;SDS011;63979;55.644;37.734;2022-11-20T18:22:48;17.95;;;9.02;;
75408;SDS011;63979;55.644;37.734;2022-11-20T18:27:48;16.95;;;8.80;;
75408;SDS011;63979;55.644;37.734;2022-11-20T18:32:50;19.45;;;8.98;;
75408;SDS011;63979;55.644;37.734;2022-11-20T18:37:50;23.92;;;8.80;;
75408;SDS011;63979;55.644;37.734;2022-11-20T18:42:51;18.83;;;8.80;;
75408;SDS011;63979;55.644;37.734;2022-11-20T18:48:11;16.55;;;7.22;;
75408;SDS011;63979;55.644;37.734;2022-11-20T18:53:13;14.98;;;7.30;;
75408;SDS011;63979;55.644;37.734;2022-11-20T18:58:14;19.90;;;8.43;;
75408;SDS011;63979;55.644;37.734;2022-11-20T19:03:15;13.80;;;6.00;;
75408;SDS011;63979;55.644;37.734;2022-11-20T19:08:16;14.77;;;8.40;;
75408;SDS011;63979;55.644;37.734;2022-11-20T19:13:17;16.55;;;7.50;;
75408;SDS011;63979;55.644;37.734;2022-11-20T19:18:19;13.45;;;7.00;;
75408;SDS011;63979;55.644;37.734;2022-11-20T19:23:20;13.57;;;6.55;;
75408;SDS011;63979;55.644;37.734;2022-11-20T19:28:21;14.98;;;7.28;;
75408;SDS011;63979;55.644;37.734;2022-11-20T19:33:23;17.45;;;7.88;;
75408;SDS011;63979;55.644;37.734;2022-11-20T19:38:24;15.88;;;7.50;;
75408;SDS011;63979;55.644;37.734;2022-11-20T19:43:25;18.80;;;8.55;;
75408;SDS011;63979;55.644;37.734;2022-11-20T19:48:29;14.73;;;7.57;;
75408;SDS011;63979;55.644;37.734;2022-11-20T19:53:32;17.85;;;8.45;;
75408;SDS011;63979;55.644;37.734;2022-11-20T19:58:34;17.02;;;8.20;;
75408;SDS011;63979;55.644;37.734;2022-11-20T20:03:36;17.75;;;10.50;;
75408;SDS011;63979;55.644;37.734;2022-11-20T20:08:40;27.90;;;12.93;;
75408;SDS011;63979;55.644;37.734;2022-11-20T20:13:42;22.00;;;10.70;;
75408;SDS011;63979;55.644;37.734;2022-11-20T20:18:43;24.10;;;11.32;;
75408;SDS011;63979;55.644;37.734;2022-11-20T20:23:45;30.75;;;13.18;;
75408;SDS011;63979;55.644;37.734;2022-11-20T20:28:50;33.05;;;12.57;;
75408;SDS011;63979;55.644;37.734;2022-11-20T20:33:51;25.58;;;11.98;;
75408;SDS011;63979;55.644;37.734;2022-11-20T20:38:55;19.63;;;11.82;;
75408;SDS011;63979;55.644;37.734;2022-11-20T20:43:59;29.77;;;13.52;;
75408;SDS011;63979;55.644;37.734;2022-11-20T20:49:19;32.05;;;12.38;;
75408;SDS011;63979;55.644;37.734;2022-11-20T20:54:20;25.50;;;12.07;;
75408;SDS011;63979;55.644;37.734;2022-11-20T20:59:21;21.83;;;11.55;;
75408;SDS011;63979;55.644;37.734;2022-11-20T21:04:22;23.95;;;12.50;;
75408;SDS011;63979;55.644;37.734;2022-11-20T21:09:23;31.73;;;12.77;;
75408;SDS011;63979;55.644;37.734;2022-11-20T21:14:24;26.70;;;10.98;;
75408;SDS011;63979;55.644;37.734;2022-11-20T21:19:25;28.45;;;11.40;;
75408;SDS011;63979;55.644;37.734;2022-11-20T21:24:33;36.53;;;10.90;;
75408;SDS011;63979;55.644;37.734;2022-11-20T21:29:35;26.75;;;10.50;;
75408;SDS011;63979;55.644;37.734;2022-11-20T21:34:36;21.65;;;10.25;;
75408;SDS011;63979;55.644;37.734;2022-11-20T21:39:37;22.88;;;11.05;;
75408;SDS011;63979;55.644;37.734;2022-11-20T21:44:49;23.70;;;10.07;;
75408;SDS011;63979;55.644;37.734;2022-11-20T21:49:50;26.45;;;12.63;;
75408;SDS011;63979;55.644;37.734;2022-11-20T21:54:51;20.08;;;10.55;;
75408;SDS011;63979;55.644;37.734;2022-11-20T21:59:52;25.40;;;10.02;;
75408;SDS011;63979;55.644;37.734;2022-11-20T22:04:53;24.35;;;9.98;;
75408;SDS011;63979;55.644;37.734;2022-11-20T22:09:54;17.17;;;9.13;;
75408;SDS011;63979;55.644;37.734;2022-11-20T22:14:54;17.38;;;8.80;;
75408;SDS011;63979;55.644;37.734;2022-11-20T22:19:55;19.77;;;9.13;;
75408;SDS011;63979;55.644;37.734;2022-11-20T22:24:56;19.75;;;9.32;;
75408;SDS011;63979;55.644;37.734;2022-11-20T22:29:57;21.65;;;9.90;;
75408;SDS011;63979;55.644;37.734;2022-11-20T22:34:58;17.80;;;9.10;;
75408;SDS011;63979;55.644;37.734;2022-11-20T22:39:59;20.63;;;10.23;;
75408;SDS011;63979;55.644;37.734;2022-11-20T22:45:00;22.02;;;8.93;;
75408;SDS011;63979;55.644;37.734;2022-11-20T22:50:01;19.17;;;9.30;;
75408;SDS011;63979;55.644;37.734;2022-11-20T22:55:03;18.27;;;9.68;;
75408;SDS011;63979;55.644;37.734;2022-11-20T23:00:05;24.25;;;10.40;;
75408;SDS011;63979;55.644;37.734;2022-11-20T23:05:07;20.15;;;9.70;;
75408;SDS011;63979;55.644;37.734;2022-11-20T23:10:08;25.55;;;10.25;;
75408;SDS011;63979;55.644;37.734;2022-11-20T23:15:10;17.23;;;9.30;;
75408;SDS011;63979;55.644;37.734;2022-11-20T23:20:10;18.33;;;7.80;;
75408;SDS011;63979;55.644;37.734;2022-11-20T23:25:12;24.13;;;9.25;;
75408;SDS011;63979;55.644;37.734;2022-11-20T23:30:13;14.13;;;8.20;;
75408;SDS011;63979;55.644;37.734;2022-11-20T23:35:15;15.98;;;8.70;;
75408;SDS011;63979;55.644;37.734;2022-11-20T23:40:16;22.08;;;11.35;;
75408;SDS011;63979;55.644;37.734;2022-11-20T23:45:17;20.73;;;9.52;;
75408;SDS011;63979;55.644;37.734;2022-11-20T23:50:18;20.80;;;10.25;;
75408;SDS011;63979;55.644;37.734;2022-11-20T23:55:20;19.52;;;8.88;;
